Hartland, Minnesota
Current Conditions -  °F | °C
As of 6:13 PM on Wednesday 26 Nov 2014 (Local Time) from KAEL Reporting Station
Overcast Overcast  
Wind Chill: -10°   Ceiling: 700
Heat Index: -4°   Visibility: 7mi
Dew Point: -6°   Wind: 10mph
Humidity: 86%   Direction: 340°NNW
Pressure: 30.24"   Gusts: NA
Location:  43.8°N, 93.49°W
Report Text: KAEL 270013Z AUTO 34009KT 7SM OVC007 M04/M06 A3024 RMK AO2
Loading
Personal Weather Stations






























Interactive Weather Map New forecast layout! Learn more

10-Day Weather Forecast

Advertisements
Track Severe Weather on mobile